Aho, North Carolina
Current Conditions -  °F | °C
As of 8:15 AM on Thursday 23 Oct 2014 (Local Time) from KTNB Reporting Station
Clear Clear  
Wind Chill: 32°   Ceiling: Unl
Heat Index: 40°   Visibility: 10mi
Dew Point: 34°   Wind: 16mph
Humidity: 78%   Direction: 310°NW
Pressure: 30.13"   Gusts: 22mph
Location:  36.0473°N, 81.8148°W
Report Text: KTNB 231215Z AUTO 31014G19KT 10SM CLR 05/01 A3013 RMK AO2 T00450010
Loading
Personal Weather Stations






























Interactive Weather Map New forecast layout! Learn more

10-Day Weather Forecast

Advertisements
Track Severe Weather on mobile